createdAt,value
2022-08-03T00:00:38.202Z,3.80
2022-08-03T00:03:05.672Z,3.50
2022-08-03T00:05:33.560Z,3.42
2022-08-03T00:08:01.637Z,3.80
2022-08-03T00:10:30.157Z,3.50
2022-08-03T00:12:57.547Z,3.65
2022-08-03T00:15:27.447Z,3.58
2022-08-03T00:17:54.642Z,3.88
2022-08-03T00:20:22.491Z,3.45
2022-08-03T00:22:51.440Z,3.70
2022-08-03T00:25:19.150Z,3.58
2022-08-03T00:27:48.369Z,3.78
2022-08-03T00:30:18.177Z,4.07
2022-08-03T00:32:45.717Z,4.20
2022-08-03T00:35:26.640Z,3.80
2022-08-03T00:38:01.126Z,3.80
2022-08-03T00:40:29.365Z,4.13
2022-08-03T00:43:04.344Z,3.72
2022-08-03T00:45:36.233Z,3.30
2022-08-03T00:48:07.146Z,3.83
2022-08-03T00:50:59.990Z,3.40
2022-08-03T00:53:27.963Z,3.72
2022-08-03T00:55:55.378Z,3.75
2022-08-03T00:58:24.150Z,3.40
2022-08-03T01:02:12.301Z,3.55
2022-08-03T01:04:39.645Z,3.70
2022-08-03T01:08:22.607Z,3.63
2022-08-03T01:12:07.613Z,4.15
2022-08-03T01:14:50.812Z,4.22
2022-08-03T01:18:33.671Z,4.07
2022-08-03T01:21:12.594Z,3.85
2022-08-03T01:24:56.922Z,3.85
2022-08-03T01:27:56.888Z,4.15
2022-08-03T01:30:33.866Z,4.20
2022-08-03T01:34:20.104Z,4.13
2022-08-03T01:36:57.039Z,3.95
2022-08-03T01:39:26.508Z,4.13
2022-08-03T01:42:06.014Z,4.13
2022-08-03T01:45:48.707Z,3.88
2022-08-03T01:49:31.199Z,4.10
2022-08-03T01:52:04.562Z,4.88
2022-08-03T01:55:05.901Z,4.22
2022-08-03T01:58:04.843Z,4.50
2022-08-03T02:00:27.378Z,4.05
2022-08-03T02:02:58.837Z,4.22
2022-08-03T02:05:30.021Z,4.22
2022-08-03T02:07:58.635Z,3.90
2022-08-03T02:10:35.116Z,3.75
2022-08-03T02:13:12.341Z,3.85
2022-08-03T02:15:41.997Z,4.20
2022-08-03T02:18:11.284Z,3.80
2022-08-03T02:20:47.631Z,4.10
2022-08-03T02:23:18.705Z,4.20
2022-08-03T02:25:54.352Z,4.35
2022-08-03T02:28:30.522Z,4.35
2022-08-03T02:31:03.333Z,4.10
2022-08-03T02:33:49.531Z,4.00
2022-08-03T02:36:25.749Z,4.20
2022-08-03T02:38:59.785Z,4.28
2022-08-03T02:41:48.929Z,3.90
2022-08-03T02:44:25.705Z,4.45
2022-08-03T02:47:03.811Z,4.53
2022-08-03T02:49:40.551Z,3.85
2022-08-03T02:52:23.819Z,4.38
2022-08-03T02:54:59.753Z,4.18
2022-08-03T02:57:31.715Z,4.18
2022-08-03T03:00:07.221Z,4.15
2022-08-03T03:02:37.028Z,4.50
2022-08-03T03:05:55.015Z,4.43
2022-08-03T03:07:54.745Z,4.25
2022-08-03T03:10:24.873Z,3.92
2022-08-03T03:12:57.788Z,4.07
2022-08-03T03:15:30.704Z,4.10
2022-08-03T03:18:00.352Z,4.00
2022-08-03T03:20:30.706Z,4.22
2022-08-03T03:23:02.692Z,3.95
2022-08-03T03:25:35.864Z,4.40
2022-08-03T03:28:06.423Z,4.38
2022-08-03T03:30:35.133Z,4.20
2022-08-03T03:33:05.874Z,4.20
2022-08-03T03:35:38.803Z,4.47
2022-08-03T03:38:07.442Z,4.63
2022-08-03T03:40:39.468Z,4.97
2022-08-03T03:43:12.985Z,4.70
2022-08-03T03:45:44.082Z,4.93
2022-08-03T03:48:14.036Z,4.57
2022-08-03T03:50:41.817Z,4.80
2022-08-03T03:53:13.691Z,4.70
2022-08-03T03:56:02.208Z,4.90
2022-08-03T03:58:30.466Z,5.22
2022-08-03T04:01:01.632Z,5.25
2022-08-03T04:03:29.472Z,4.78
2022-08-03T04:06:16.604Z,5.07
2022-08-03T04:09:19.028Z,4.75
2022-08-03T04:11:55.558Z,4.80
2022-08-03T04:14:35.459Z,4.65
2022-08-03T04:17:07.677Z,4.70
2022-08-03T04:19:43.969Z,4.93
2022-08-03T04:22:26.648Z,4.68
2022-08-03T04:25:06.187Z,5.00
2022-08-03T04:27:41.712Z,5.22
2022-08-03T04:30:10.821Z,4.88
2022-08-03T04:32:45.851Z,5.13
2022-08-03T04:35:13.607Z,4.30
2022-08-03T04:37:49.805Z,4.45
2022-08-03T04:40:35.076Z,4.13
2022-08-03T04:43:04.909Z,4.68
2022-08-03T04:45:35.299Z,4.10
2022-08-03T04:48:04.988Z,4.13
2022-08-03T04:50:33.773Z,3.88
2022-08-03T04:53:07.651Z,3.90
2022-08-03T04:55:36.564Z,3.65
2022-08-03T04:58:04.956Z,3.47
2022-08-03T05:00:33.011Z,3.95
2022-08-03T05:03:00.476Z,3.15
2022-08-03T05:05:48.799Z,2.85
2022-08-03T05:08:27.850Z,2.83
2022-08-03T05:10:59.385Z,2.80
2022-08-03T05:13:27.106Z,2.60
2022-08-03T05:15:54.737Z,3.10
2022-08-03T05:18:25.046Z,2.80
2022-08-03T05:20:52.384Z,2.90
2022-08-03T05:23:20.009Z,2.53
2022-08-03T05:25:50.064Z,2.85
2022-08-03T05:28:17.975Z,3.20
2022-08-03T05:30:45.469Z,2.65
2022-08-03T05:33:15.781Z,2.90
2022-08-03T05:35:56.016Z,2.72
2022-08-03T05:38:34.350Z,2.90
2022-08-03T05:41:21.060Z,2.80
2022-08-03T05:43:54.838Z,2.90
2022-08-03T05:46:25.272Z,2.80
2022-08-03T05:48:52.893Z,2.88
2022-08-03T05:51:25.658Z,2.80
2022-08-03T05:53:52.886Z,2.55
2022-08-03T05:56:27.686Z,2.83
2022-08-03T05:58:55.198Z,2.78
2022-08-03T06:01:23.024Z,2.90
2022-08-03T06:03:52.189Z,3.20
2022-08-03T06:06:20.055Z,3.00
2022-08-03T06:08:48.778Z,2.80
2022-08-03T06:11:16.788Z,3.22
2022-08-03T06:13:45.618Z,3.03
2022-08-03T06:16:12.990Z,2.90
2022-08-03T06:18:44.225Z,2.83
2022-08-03T06:21:15.442Z,2.38
2022-08-03T06:23:54.764Z,2.80
2022-08-03T06:26:26.258Z,3.20
2022-08-03T06:28:55.131Z,2.75
2022-08-03T06:31:33.254Z,2.88
2022-08-03T06:34:34.303Z,2.60
2022-08-03T06:37:01.785Z,2.55
2022-08-03T06:39:29.548Z,2.83
2022-08-03T06:41:59.877Z,2.90
2022-08-03T06:44:27.457Z,3.28
2022-08-03T06:46:55.837Z,2.70
2022-08-03T06:49:23.409Z,2.80
2022-08-03T06:52:03.330Z,2.45
2022-08-03T06:54:34.166Z,3.10
2022-08-03T06:57:01.516Z,2.72
2022-08-03T07:00:07.870Z,2.72
2022-08-03T07:02:20.406Z,2.90
2022-08-03T07:04:49.695Z,2.60
2022-08-03T07:07:17.773Z,2.67
2022-08-03T07:09:57.647Z,2.85
2022-08-03T07:12:30.536Z,2.72
2022-08-03T07:15:03.448Z,2.50
2022-08-03T07:17:35.759Z,3.08
2022-08-03T07:20:10.463Z,2.63
2022-08-03T07:22:37.846Z,2.60
2022-08-03T07:25:07.217Z,2.50
2022-08-03T07:27:34.718Z,2.60
2022-08-03T07:30:02.984Z,2.78
2022-08-03T07:32:31.510Z,2.70
2022-08-03T07:35:01.261Z,2.60
2022-08-03T07:37:56.108Z,2.38
2022-08-03T07:40:28.189Z,2.47
2022-08-03T07:43:00.523Z,2.63
2022-08-03T07:45:28.129Z,2.47
2022-08-03T07:47:55.537Z,2.13
2022-08-03T07:50:23.468Z,2.60
2022-08-03T07:52:56.046Z,2.50
2022-08-03T07:55:25.927Z,2.40
2022-08-03T07:58:12.279Z,2.40
2022-08-03T08:00:39.831Z,2.20
2022-08-03T08:03:07.236Z,2.65
2022-08-03T08:05:35.076Z,2.20
2022-08-03T08:26:39.422Z,2.03
2022-08-03T08:29:08.147Z,2.50
2022-08-03T08:31:36.381Z,2.20
2022-08-03T08:34:11.210Z,2.00
2022-08-03T08:36:39.790Z,1.90
2022-08-03T08:40:24.269Z,1.70
2022-08-03T08:44:10.280Z,2.03
2022-08-03T08:47:55.745Z,1.73
2022-08-03T08:50:28.346Z,1.75
2022-08-03T08:54:11.982Z,1.88
2022-08-03T08:56:43.307Z,2.05
2022-08-03T08:59:11.662Z,1.70
2022-08-03T09:01:45.735Z,1.80
2022-08-03T09:05:55.060Z,1.70
2022-08-03T09:08:26.372Z,1.40
2022-08-03T09:12:37.469Z,1.20
2022-08-03T09:15:36.031Z,1.50
2022-08-03T09:18:06.319Z,1.55
2022-08-03T09:21:49.452Z,1.52
2022-08-03T09:25:32.148Z,1.50
2022-08-03T09:29:15.592Z,1.83
2022-08-03T09:31:50.053Z,1.60
2022-08-03T09:35:53.041Z,1.80
2022-08-03T09:38:28.639Z,1.70
